KSAF

Santa Fe

Airport
ICAO code
KSAF
Summary
ICAO Region
NAM
ICAO Territory
Location

Santa Fe, New Mexico,

Coordinates
35° 36' 59" N , 106° 5' 21" W
KCC
Airport RE
Hot and High Operations
Metar
KSAF 202253Z 22010KT 10SM CLR 17/M11 A3020 RMK AO2 SLP179 T01671111

Description

Santa Fe Municipal Airport is a public airport located 14 km southwest of the central business district (CBD) of Santa Fe, a city in Santa Fe County, New Mexico.

Climatology

A semi-arid steppe climate (Köppen climate classification BSk), with generally cold, dry winters and hot summers. Late spring and early summer is on average the wettest period of the year.

Runways

Designator Length Width Surface Rops
10/28 1920 23 ASP Yes/Yes
15/33 1922 46 ASP Yes/Yes
2/20 2543 46 ASP Yes/Yes

Airport map

Aerial View

SKYbrary Partners:

Safety knowledge contributed by: